Granville, IA (51022)

2:27 PM CDT on July 30, 2014 (GMT -0500)
Orange City Municipal (KORC) Elev 1414 ft | 42.99 °N, 96.06 °W | Change Station

Current weather conditions updated 12 minutes ago

Scattered Clouds
Scattered Clouds
77 °F
Feels Like 77 °F
N
4
Wind Variable Wind from WNW

Today is forecast to be Much Warmer than yesterday.

Today
High -- | Low -- °F
--% Chance of Precip.
Yesterday
High -- | Low -- °F
Precip. -- in
6:12 AM 8:46 PM
Waxing Crescent, 13% visible
Pressure 30.15 in
Visibility 10.0 miles
Clouds Scattered Clouds 5500 ft
Dew Point 52 °F
Humidity 41%
Rainfall 0.00 in
Snow Depth Not available.
UV 8 out of 12
Pollen 5.70 out of 12
Air Quality Not available.
Flu Activity Not available.
METAR KORC 301915Z AUTO 30003KT 10SM SCT055 25/11 A3015 RMK AO2

More Conditions Fewer Conditions

Pressure 30.15 in
Visibility 10.0 miles
Clouds Scattered Clouds 5500 ft
Dew Point 52 °F
Humidity 41%
Rainfall 0.00 in
Snow Depth Not available.
UV 8 out of 12
Pollen 5.70 out of 12
Air Quality Not available.
Flu Activity Not available.
METAR KORC 301915Z AUTO 30003KT 10SM SCT055 25/11 A3015 RMK AO2

More Conditions Fewer Conditions

10-Day Weather Forecast

Almanac

Astronomy

Jul. 30, 2014 Rise Set
Actual Time 6:12 AM CDT 8:46 PM CDT
Civil Twilight 5:40 AM CDT 9:19 PM CDT
Nautical Twilight 4:59 AM CDT 9:59 PM CDT
Astronomical Twilight 4:13 AM CDT 10:45 PM CDT
Moon 9:51 AM CDT 10:22 PM CDT
Length of Visible Light 15h 39m
Length of Day
14h 34m
Tomorrow will be 2m 11s shorter.
Waxing Crescent, 13% of the Moon is Illuminated
Today
Waxing Crescent
Aug 3
First Quarter
Aug 10
Full
Aug 17
Last Quarter
Aug 25
New

Today's Extremes

State Highs State Lows

Community

WunderPhotos

Upload Photos

1,739,162 photos uploaded!

WunderBlogs® & News

Nearby

Snow Depth

Station Depth Elevation
No new snow has been reported.

Earthquake Activity

City Distance Mag. Time & Date
No recent earthquake activity has been reported nearby.
Minimum magnitude displayed is 2.5.

Coastal Water Temperatures

Place Temperature
No Stations Reporting

Nearby Weather Stations

Station Location Temp. Heat Index Dew Point Humidity Wind Precip. Elev Updated Type
MesoWest HOSPER , Hospers, IA 71 °F - - - North  at  - 0.00 in / hr 1375 ft 12:55 PM CDT MADIS
MesoWest CARNES , Oyens, IA 71 °F - - - North  at  - 0.00 in / hr 1250 ft 11:25 AM CDT MADIS
Wilson Street, Sheldon, IA 75.5 °F 78 °F 62 °F 62% NE  at  0.0 mph 0.00 in / hr 1447 ft 2:27 PM CDT Rapid Fire
Sioux Center, Sioux Center, IA 77.0 °F 79 °F 56 °F 48% WNW  at  0.0 mph 0.00 in / hr 1411 ft 2:13 PM CDT Normal
Sioux Center IA, Sioux Center, IA 78.0 °F 79 °F 55 °F 45% ENE  at  3.0 mph 0.00 in / hr 1470 ft 2:25 PM CDT Normal
SSW Union, Kingsley, IA 75.3 °F 78 °F 58 °F 54% ESE  at  3.0 mph 0.00 in / hr 1368 ft 2:20 PM CDT Normal

Show More Stations Show Fewer Stations